Time;durP1;ratioP1;P1;durP2;ratioP2;P2;SDS_P1;SDS_P2;PMS_P1;PMS_P2;Temp;Humidity;BMP_temperature;BMP_pressure;BME280_temperature;BME280_humidity;BME280_pressure;Samples;Min_cycle;Max_cycle;Signal;HPM_P1;HPM_P2
2024/03/03 00:02:18;;;;;;;39.15;23.42;;;;;;;8.30;66.98;94660.97;5025799;28;20340;-80
2024/03/03 00:04:43;;;;;;;36.88;23.30;;;;;;;8.31;67.08;94657.03;5027196;28;20087;-80
2024/03/03 00:07:09;;;;;;;37.33;21.17;;;;;;;8.37;66.90;94660.03;5025946;28;20479;-79
2024/03/03 00:09:34;;;;;;;40.15;23.00;;;;;;;8.31;66.89;94667.19;5027463;28;20032;-80
2024/03/03 00:12:00;;;;;;;38.33;21.63;;;;;;;8.23;66.73;94645.47;5026298;28;20025;-80
2024/03/03 00:14:25;;;;;;;36.22;21.77;;;;;;;8.33;66.52;94657.38;5028426;28;20063;-79
2024/03/03 00:16:50;;;;;;;42.63;23.20;;;;;;;8.32;66.31;94652.34;5031006;28;20025;-79
2024/03/03 00:19:16;;;;;;;38.72;20.63;;;;;;;8.27;66.70;94655.59;5030266;28;20132;-79
2024/03/03 00:21:41;;;;;;;41.00;22.23;;;;;;;8.25;66.71;94647.78;5029701;28;20108;-79
2024/03/03 00:24:07;;;;;;;38.38;21.98;;;;;;;8.29;66.60;94655.91;5029493;28;20529;-79
2024/03/03 00:26:33;;;;;;;38.47;21.65;;;;;;;8.25;66.34;94647.78;5031292;28;20056;-79
2024/03/03 00:28:59;;;;;;;38.35;21.85;;;;;;;8.19;66.33;94644.00;5029628;28;20017;-79
2024/03/03 00:31:24;;;;;;;34.95;21.40;;;;;;;8.22;66.37;94643.94;5029796;28;20072;-80
2024/03/03 00:33:50;;;;;;;34.70;20.73;;;;;;;8.16;66.42;94639.41;5030201;28;20029;-79
2024/03/03 00:36:15;;;;;;;32.00;20.25;;;;;;;8.18;66.11;94648.72;5030242;28;20491;-80
2024/03/03 00:38:40;;;;;;;31.05;19.63;;;;;;;8.07;66.36;94637.25;5030899;28;20037;-79
2024/03/03 00:41:06;;;;;;;30.52;19.58;;;;;;;8.05;66.47;94634.19;5029417;28;20029;-80
2024/03/03 00:43:32;;;;;;;31.95;19.25;;;;;;;7.92;66.72;94641.53;5030600;28;20405;-81
2024/03/03 00:45:57;;;;;;;36.80;21.35;;;;;;;7.98;66.66;94640.59;5029350;28;20044;-80
2024/03/03 00:48:22;;;;;;;32.80;19.80;;;;;;;7.91;66.60;94635.31;5030891;28;20424;-79
2024/03/03 00:50:48;;;;;;;34.15;19.90;;;;;;;7.95;66.28;94629.72;5029548;28;20091;-80
2024/03/03 00:53:13;;;;;;;33.10;20.10;;;;;;;7.97;65.96;94638.28;5030798;28;20116;-79
2024/03/03 00:55:41;;;;;;;33.47;19.58;;;;;;;7.92;66.16;94636.06;5030239;28;20099;-80
2024/03/03 00:58:07;;;;;;;34.33;19.48;;;;;;;7.92;65.85;94636.84;5028415;28;20433;-79
2024/03/03 01:00:32;;;;;;;32.22;19.80;;;;;;;7.96;65.59;94629.28;5031111;28;20076;-79
2024/03/03 01:02:58;;;;;;;34.53;20.25;;;;;;;7.87;65.84;94625.63;5029481;28;20500;-80
2024/03/03 01:05:23;;;;;;;31.65;19.58;;;;;;;7.89;65.53;94631.44;5028930;28;20476;-80
2024/03/03 01:07:48;;;;;;;37.33;19.60;;;;;;;7.85;65.47;94633.47;5029512;28;20025;-80
2024/03/03 01:10:14;;;;;;;31.38;18.42;;;;;;;7.79;65.55;94632.44;5030706;28;20021;-79
2024/03/03 01:12:39;;;;;;;37.13;20.15;;;;;;;7.64;65.54;94607.41;5029981;28;20021;-80
2024/03/03 01:15:05;;;;;;;29.02;18.08;;;;;;;7.77;65.28;94627.41;5029813;28;20037;-80
2024/03/03 01:17:30;;;;;;;31.83;17.75;;;;;;;7.75;65.34;94621.59;5030993;28;20021;-79
2024/03/03 01:19:56;;;;;;;33.05;18.42;;;;;;;7.70;65.16;94622.88;5029052;28;20172;-78
2024/03/03 01:22:21;;;;;;;27.80;17.13;;;;;;;7.65;65.29;94628.84;5029963;28;20372;-78
2024/03/03 01:24:47;;;;;;;27.85;17.35;;;;;;;7.63;65.21;94625.00;5029074;28;20023;-79
2024/03/03 01:27:12;;;;;;;32.40;19.42;;;;;;;7.52;65.40;94608.06;5029908;28;20543;-79
2024/03/03 01:29:37;;;;;;;29.92;17.65;;;;;;;7.60;65.05;94621.13;5028672;28;20115;-79
2024/03/03 01:32:03;;;;;;;36.28;18.95;;;;;;;7.51;65.28;94620.94;5029825;28;20026;-78
2024/03/03 01:34:30;;;;;;;30.38;17.45;;;;;;;7.47;65.61;94614.81;5029214;28;20025;-80
2024/03/03 01:36:55;;;;;;;25.05;15.15;;;;;;;7.44;65.52;94615.63;5029432;28;20036;-81
2024/03/03 01:39:20;;;;;;;29.42;17.98;;;;;;;7.31;65.51;94612.78;5029773;28;20423;-79
2024/03/03 01:41:49;;;;;;;29.75;18.05;;;;;;;7.34;65.78;94622.91;5028503;28;20369;-80
2024/03/03 01:44:14;;;;;;;30.67;17.23;;;;;;;7.36;65.69;94627.94;5028420;28;20030;-80
2024/03/03 01:46:40;;;;;;;29.13;16.45;;;;;;;7.38;65.51;94617.34;5028350;28;20032;-79
2024/03/03 01:49:10;;;;;;;27.65;16.25;;;;;;;7.27;65.71;94614.06;5029435;28;20411;-78
2024/03/03 01:51:37;;;;;;;25.23;15.40;;;;;;;7.15;67.04;94618.19;5043759;28;20511;-80
2024/03/03 01:54:04;;;;;;;25.27;15.65;;;;;;;7.13;66.75;94626.06;5027885;28;20162;-80
2024/03/03 01:56:30;;;;;;;25.13;15.65;;;;;;;7.04;67.25;94617.66;5029067;28;20097;-79
2024/03/03 01:58:57;;;;;;;25.50;15.35;;;;;;;7.11;67.42;94622.97;5028140;28;20018;-79
2024/03/03 02:01:23;;;;;;;25.98;15.95;;;;;;;7.06;67.57;94621.53;5044683;28;20030;-79
2024/03/03 02:03:50;;;;;;;27.80;17.58;;;;;;;7.06;67.57;94618.03;5043124;28;20092;-80
2024/03/03 02:06:17;;;;;;;26.20;16.70;;;;;;;6.99;67.61;94618.13;5028998;28;20664;-80
2024/03/03 02:08:42;;;;;;;27.85;15.98;;;;;;;7.02;67.33;94618.06;5028183;28;20472;-80
2024/03/03 02:11:09;;;;;;;26.88;16.30;;;;;;;6.95;67.64;94617.47;5027399;28;20021;-79
2024/03/03 02:13:34;;;;;;;25.80;16.17;;;;;;;6.90;68.03;94616.75;5027237;28;20025;-79
2024/03/03 02:15:59;;;;;;;24.90;15.40;;;;;;;6.92;68.09;94625.28;5028079;28;20021;-79
2024/03/03 02:18:25;;;;;;;26.42;16.17;;;;;;;6.95;67.72;94628.41;5028825;28;20025;-79
2024/03/03 02:20:50;;;;;;;26.83;16.60;;;;;;;7.00;67.17;94623.22;5027748;28;20476;-81
2024/03/03 02:23:16;;;;;;;26.67;16.30;;;;;;;7.00;67.23;94625.94;5029817;28;20033;-80
2024/03/03 02:25:41;;;;;;;22.45;15.27;;;;;;;6.98;67.35;94625.56;5028343;28;20036;-80
2024/03/03 02:28:07;;;;;;;22.70;14.40;;;;;;;6.90;67.54;94622.22;5027476;28;20462;-78
2024/03/03 02:30:32;;;;;;;22.95;14.80;;;;;;;6.97;67.67;94631.47;5028105;28;20118;-80
2024/03/03 02:32:58;;;;;;;27.05;15.93;;;;;;;6.91;67.99;94625.72;5028603;28;20044;-80
2024/03/03 02:35:23;;;;;;;24.98;14.75;;;;;;;6.99;67.77;94631.81;5028350;28;20025;-80
2024/03/03 02:37:49;;;;;;;23.45;14.90;;;;;;;7.03;68.24;94622.34;5027534;28;20075;-81
2024/03/03 02:40:14;;;;;;;26.92;16.50;;;;;;;6.92;68.47;94621.78;5028806;28;20040;-79
2024/03/03 02:42:40;;;;;;;25.02;15.65;;;;;;;6.89;68.83;94626.16;5027736;28;20025;-80
2024/03/03 02:45:05;;;;;;;23.65;15.48;;;;;;;6.92;68.98;94624.53;5044019;28;20037;-80
2024/03/03 02:47:31;;;;;;;24.33;15.07;;;;;;;6.92;69.21;94625.28;5027599;28;20035;-79
2024/03/03 02:49:56;;;;;;;27.70;15.48;;;;;;;6.89;69.47;94623.41;5028703;28;20092;-80
2024/03/03 02:52:22;;;;;;;26.05;15.60;;;;;;;6.83;69.99;94624.31;5027964;28;20025;-81
2024/03/03 02:54:47;;;;;;;25.75;14.68;;;;;;;6.91;69.94;94637.41;5028400;28;20081;-80
2024/03/03 02:57:12;;;;;;;23.55;13.18;;;;;;;6.96;70.07;94643.59;5028051;28;20488;-80
2024/03/03 02:59:38;;;;;;;18.63;12.13;;;;;;;6.88;70.21;94632.00;5042667;28;20194;-80
2024/03/03 03:02:03;;;;;;;18.25;10.77;;;;;;;6.99;70.12;94634.53;5028372;28;20036;-80
2024/03/03 03:04:29;;;;;;;12.25;8.30;;;;;;;6.87;70.06;94633.97;5026767;28;20036;-79
2024/03/03 03:06:54;;;;;;;14.60;8.48;;;;;;;6.90;70.56;94635.13;5027753;28;20172;-81
2024/03/03 03:09:21;;;;;;;10.50;7.55;;;;;;;6.92;70.77;94636.22;5026896;28;20522;-80
2024/03/03 03:11:46;;;;;;;12.20;8.32;;;;;;;6.90;70.68;94641.34;5027833;28;20026;-79
2024/03/03 03:14:12;;;;;;;10.98;7.50;;;;;;;6.98;70.69;94647.44;5027348;28;20546;-79
2024/03/03 03:16:41;;;;;;;12.38;8.15;;;;;;;6.97;70.64;94651.38;5027406;28;20064;-80
2024/03/03 03:19:07;;;;;;;11.70;8.25;;;;;;;6.92;70.84;94652.63;5027871;28;20029;-80
2024/03/03 03:21:33;;;;;;;13.98;8.93;;;;;;;6.83;71.11;94644.22;5027260;28;20022;-80
2024/03/03 03:23:58;;;;;;;12.40;8.05;;;;;;;7.00;70.94;94655.22;5043067;28;20483;-79
2024/03/03 03:26:24;;;;;;;9.93;7.28;;;;;;;7.06;70.57;94651.59;5026418;28;20352;-79
2024/03/03 03:28:49;;;;;;;12.18;7.80;;;;;;;7.13;70.39;94654.16;5027666;28;20479;-80
2024/03/03 03:31:15;;;;;;;11.65;8.13;;;;;;;7.20;70.04;94658.72;5025023;28;20045;-79
2024/03/03 03:33:41;;;;;;;12.75;8.38;;;;;;;7.15;70.09;94653.75;5027155;28;20475;-79
2024/03/03 03:36:10;;;;;;;12.32;7.85;;;;;;;7.23;69.87;94648.91;5027257;28;20035;-79
2024/03/03 03:38:35;;;;;;;13.57;8.43;;;;;;;7.14;69.44;94642.03;5026781;28;20502;-80
2024/03/03 03:41:03;;;;;;;13.80;8.75;;;;;;;7.13;69.95;94654.16;5027407;28;20112;-79
2024/03/03 03:43:28;;;;;;;15.05;9.57;;;;;;;7.11;69.96;94659.31;5026216;28;20184;-79
2024/03/03 03:45:53;;;;;;;17.15;10.80;;;;;;;7.12;69.84;94658.09;5027539;28;20101;-79
2024/03/03 03:48:19;;;;;;;15.43;11.98;;;;;;;7.16;69.43;94666.22;5026064;28;20029;-79
2024/03/03 03:50:44;;;;;;;18.52;11.75;;;;;;;7.09;69.27;94667.13;5026932;28;20064;-79
2024/03/03 03:53:10;;;;;;;17.73;11.30;;;;;;;7.09;69.33;94669.09;5027051;28;20419;-79
2024/03/03 03:55:35;;;;;;;15.63;10.82;;;;;;;7.11;69.33;94663.97;5026637;28;20025;-82
2024/03/03 03:58:00;;;;;;;17.92;11.52;;;;;;;7.10;69.36;94665.16;5026474;28;20056;-80
2024/03/03 04:00:26;;;;;;;21.42;13.35;;;;;;;7.05;69.39;94666.41;5027167;28;20101;-80
2024/03/03 04:02:52;;;;;;;26.83;15.70;;;;;;;6.97;69.19;94656.84;5027546;28;20037;-79
2024/03/03 04:05:17;;;;;;;24.80;15.57;;;;;;;7.00;69.17;94666.16;5025893;28;20098;-80
2024/03/03 04:07:42;;;;;;;27.40;16.50;;;;;;;6.99;68.81;94667.34;5027474;28;20063;-79
2024/03/03 04:10:09;;;;;;;26.58;17.35;;;;;;;6.94;68.41;94665.88;5026315;28;20022;-79
2024/03/03 04:12:34;;;;;;;25.88;16.83;;;;;;;6.96;68.11;94668.97;5027424;28;20061;-79
2024/03/03 04:14:59;;;;;;;24.45;15.07;;;;;;;7.01;67.72;94665.75;5027137;28;20072;-81
2024/03/03 04:17:25;;;;;;;22.83;14.50;;;;;;;7.02;67.49;94667.28;5027116;28;20024;-79
2024/03/03 04:19:50;;;;;;;24.73;15.32;;;;;;;7.11;67.08;94667.50;5027417;28;20018;-79
2024/03/03 04:22:16;;;;;;;24.00;15.68;;;;;;;7.05;66.95;94666.41;5026131;28;20429;-79
2024/03/03 04:24:41;;;;;;;24.58;14.02;;;;;;;6.97;67.36;94659.56;5027374;28;20033;-80
2024/03/03 04:27:06;;;;;;;22.85;13.85;;;;;;;7.02;67.38;94666.50;5026176;28;20033;-80
2024/03/03 04:29:32;;;;;;;24.73;14.02;;;;;;;7.04;67.63;94664.13;5027350;28;20524;-78
2024/03/03 04:31:58;;;;;;;21.15;14.02;;;;;;;6.98;67.74;94663.06;5026071;28;20440;-81
2024/03/03 04:34:26;;;;;;;21.63;13.68;;;;;;;7.00;67.91;94671.63;5041907;28;20163;-80
2024/03/03 04:36:52;;;;;;;20.45;12.80;;;;;;;7.03;67.78;94662.56;5027386;28;20060;-81
2024/03/03 04:39:18;;;;;;;24.08;12.95;;;;;;;7.06;67.96;94659.78;5026013;28;20087;-81
2024/03/03 04:41:43;;;;;;;25.58;13.10;;;;;;;7.11;68.28;94667.50;5027176;28;20234;-79
2024/03/03 04:44:08;;;;;;;27.60;12.77;;;;;;;7.14;68.41;94663.91;5025287;28;20075;-80
2024/03/03 04:46:34;;;;;;;26.35;13.23;;;;;;;7.14;68.79;94663.91;5027221;28;20040;-80
2024/03/03 04:48:59;;;;;;;24.02;12.27;;;;;;;7.27;68.66;94666.00;5025922;28;20028;-80
2024/03/03 04:51:25;;;;;;;26.77;12.75;;;;;;;7.26;68.75;94662.50;5026673;28;20030;-79
2024/03/03 04:53:50;;;;;;;24.65;12.98;;;;;;;7.27;68.87;94663.28;5026258;28;20100;-81
2024/03/03 04:56:17;;;;;;;26.30;12.13;;;;;;;7.32;68.85;94666.28;5025858;28;20049;-80
2024/03/03 04:58:43;;;;;;;27.52;12.60;;;;;;;7.23;69.47;94665.31;5026493;28;20026;-79
2024/03/03 05:01:08;;;;;;;27.42;13.85;;;;;;;7.22;69.45;94663.75;5027729;28;20168;-79
2024/03/03 05:03:34;;;;;;;30.00;13.40;;;;;;;7.18;69.67;94672.06;5030298;28;20116;-81
2024/03/03 05:06:00;;;;;;;26.42;13.50;;;;;;;7.18;69.94;94663.84;5028626;28;20018;-81
2024/03/03 05:08:26;;;;;;;28.67;13.13;;;;;;;7.06;70.07;94661.75;5030427;28;20501;-80
2024/03/03 05:10:51;;;;;;;28.65;13.18;;;;;;;7.07;70.31;94668.75;5029530;28;20096;-80
2024/03/03 05:13:16;;;;;;;32.63;13.90;;;;;;;7.15;70.12;94673.66;5030019;28;20518;-81
2024/03/03 05:15:42;;;;;;;25.90;14.05;;;;;;;7.00;70.64;94668.91;5030088;28;20029;-79
2024/03/03 05:18:07;;;;;;;32.38;14.00;;;;;;;7.04;70.82;94672.31;5028709;28;20021;-80
2024/03/03 05:20:32;;;;;;;31.50;13.80;;;;;;;7.12;70.58;94674.50;5030155;28;20110;-79
2024/03/03 05:22:58;;;;;;;28.95;13.95;;;;;;;7.05;70.52;94673.84;5028830;28;20427;-81
2024/03/03 05:25:23;;;;;;;32.63;15.68;;;;;;;7.11;70.50;94681.16;5029786;28;20116;-79
2024/03/03 05:27:50;;;;;;;33.63;15.48;;;;;;;7.07;70.87;94676.97;5028651;28;20048;-80
2024/03/03 05:30:15;;;;;;;32.97;15.00;;;;;;;7.10;70.66;94681.56;5044870;28;20025;-80
2024/03/03 05:32:40;;;;;;;32.20;15.95;;;;;;;7.07;71.04;94685.94;5029446;28;20025;-80
2024/03/03 05:35:06;;;;;;;35.08;14.63;;;;;;;7.06;71.06;94683.63;5029137;28;20060;-80
2024/03/03 05:37:31;;;;;;;33.17;15.15;;;;;;;7.16;71.00;94685.34;5029935;28;20199;-81
2024/03/03 05:39:58;;;;;;;34.58;15.35;;;;;;;7.25;70.45;94680.09;5028943;28;20026;-80
2024/03/03 05:42:24;;;;;;;35.05;16.27;;;;;;;7.25;70.39;94690.28;5029958;28;20022;-81
2024/03/03 05:44:49;;;;;;;31.75;13.98;;;;;;;7.15;70.90;94687.31;5027496;28;20065;-79
2024/03/03 05:47:15;;;;;;;30.55;13.95;;;;;;;7.17;70.87;94690.41;5029696;28;20100;-81
2024/03/03 05:49:41;;;;;;;33.42;14.63;;;;;;;7.27;70.58;94698.81;5028601;28;20029;-79
2024/03/03 05:52:07;;;;;;;37.03;14.93;;;;;;;7.28;70.52;94703.09;5029489;28;20108;-81
2024/03/03 05:54:33;;;;;;;35.08;15.65;;;;;;;7.18;70.81;94697.44;5030490;28;20026;-79
2024/03/03 05:56:58;;;;;;;36.13;16.58;;;;;;;7.17;70.94;94703.31;5027309;28;20107;-78
2024/03/03 05:59:23;;;;;;;32.75;15.15;;;;;;;7.16;71.04;94708.00;5027900;28;20037;-79
2024/03/03 06:01:49;;;;;;;34.92;16.17;;;;;;;7.19;70.75;94707.16;5028394;28;20018;-80
2024/03/03 06:04:15;;;;;;;36.60;15.60;;;;;;;7.17;71.10;94708.78;5029058;28;20033;-80
2024/03/03 06:06:41;;;;;;;32.38;14.57;;;;;;;7.15;71.03;94706.44;5028056;28;20017;-80
2024/03/03 06:09:10;;;;;;;30.02;14.32;;;;;;;7.24;71.04;94707.88;5028944;28;20037;-79
2024/03/03 06:11:40;;;;;;;34.22;15.00;;;;;;;7.27;71.08;94705.06;5028046;28;20482;-80
2024/03/03 06:14:14;;;;;;;34.38;14.48;;;;;;;7.26;70.90;94710.94;5028043;28;20026;-80
2024/03/03 06:16:40;;;;;;;31.67;13.77;;;;;;;7.27;70.83;94717.94;5028941;28;20052;-79
2024/03/03 06:19:06;;;;;;;29.70;13.43;;;;;;;7.26;70.89;94714.44;5027632;28;20506;-81
2024/03/03 06:21:31;;;;;;;34.20;14.45;;;;;;;7.23;71.11;94711.81;5028974;28;20032;-80
2024/03/03 06:23:57;;;;;;;33.35;14.27;;;;;;;7.30;70.64;94706.97;5027658;28;20165;-80
2024/03/03 06:26:28;;;;;;;30.45;14.43;;;;;;;7.25;70.82;94715.66;5028460;28;20034;-80
2024/03/03 06:28:55;;;;;;;35.20;15.18;;;;;;;7.23;70.86;94703.59;5026341;28;20021;-80
2024/03/03 06:31:20;;;;;;;31.33;13.98;;;;;;;7.26;71.09;94719.16;5028051;28;20025;-81
2024/03/03 06:33:46;;;;;;;33.83;13.32;;;;;;;7.25;70.98;94721.13;5028939;28;20036;-81
2024/03/03 06:36:21;;;;;;;30.17;13.52;;;;;;;7.32;70.96;94718.22;5027291;28;20026;-80
2024/03/03 06:38:47;;;;;;;38.47;16.00;;;;;;;7.37;70.74;94719.72;5028632;28;20036;-79
2024/03/03 06:41:16;;;;;;;42.30;17.00;;;;;;;7.39;70.88;94720.81;5027327;28;20100;-82
2024/03/03 06:43:45;;;;;;;43.15;19.02;;;;;;;7.40;70.81;94716.91;5028469;28;20056;-80
2024/03/03 06:46:11;;;;;;;40.85;19.17;;;;;;;7.39;70.83;94718.09;5028233;28;20064;-81
2024/03/03 06:48:37;;;;;;;38.80;17.30;;;;;;;7.40;70.93;94716.91;5031445;28;20044;-81
2024/03/03 06:51:03;;;;;;;34.72;16.70;;;;;;;7.37;71.08;94720.47;5032053;28;20033;-83
2024/03/03 06:53:28;;;;;;;34.83;16.40;;;;;;;7.37;71.09;94727.91;5029828;28;20026;-81
2024/03/03 06:55:53;;;;;;;37.88;16.17;;;;;;;7.41;70.99;94721.19;5035512;28;20049;-83
2024/03/03 06:58:19;;;;;;;34.55;15.80;;;;;;;7.46;70.86;94728.13;5028671;28;20040;-79
2024/03/03 07:00:44;;;;;;;34.80;16.27;;;;;;;7.47;70.86;94726.16;5028667;28;20423;-80
2024/03/03 07:05:35;;;;;;;38.13;17.00;;;;;;;7.45;70.79;94732.84;5027634;28;20415;-80
2024/03/03 07:08:02;;;;;;;41.45;17.52;;;;;;;7.40;71.13;94729.81;5027736;28;20458;-79
2024/03/03 07:10:31;;;;;;;34.45;17.42;;;;;;;7.41;71.08;94720.41;5026955;28;20403;-81
2024/03/03 07:12:57;;;;;;;39.22;16.92;;;;;;;7.52;70.67;94726.44;5026640;28;20040;-80
2024/03/03 07:15:22;;;;;;;37.85;18.17;;;;;;;7.51;70.81;94729.59;5027134;28;20018;-81
2024/03/03 07:17:48;;;;;;;41.83;18.75;;;;;;;7.54;70.39;94732.25;5028268;28;20041;-81
2024/03/03 07:20:13;;;;;;;38.75;19.00;;;;;;;7.48;70.46;94738.66;5026996;28;20026;-80
2024/03/03 07:22:39;;;;;;;38.00;17.50;;;;;;;7.48;70.56;94733.94;5027527;28;20103;-79
2024/03/03 07:25:05;;;;;;;37.63;17.48;;;;;;;7.52;70.42;94740.13;5027022;28;20079;-80
2024/03/03 07:27:34;;;;;;;37.22;18.08;;;;;;;7.49;70.49;94745.66;5027632;28;20026;-80
2024/03/03 07:30:00;;;;;;;38.22;17.95;;;;;;;7.54;70.50;94743.19;5044012;28;20117;-80
2024/03/03 07:32:29;;;;;;;36.80;16.95;;;;;;;7.56;70.37;94748.25;5027586;28;20033;-81
2024/03/03 07:34:57;;;;;;;32.78;17.13;;;;;;;7.56;70.27;94751.75;5028581;28;20035;-82
2024/03/03 07:37:23;;;;;;;35.17;16.52;;;;;;;7.58;70.18;94751.34;5026467;28;20488;-82
2024/03/03 07:39:48;;;;;;;36.90;18.45;;;;;;;7.54;70.31;94750.63;5028091;28;20479;-83
2024/03/03 07:42:14;;;;;;;38.75;17.65;;;;;;;7.65;69.87;94745.72;5024999;28;20033;-82
2024/03/03 07:44:39;;;;;;;26.27;14.85;;;;;;;7.84;68.64;94755.09;5027875;28;20026;-83
2024/03/03 07:47:05;;;;;;;36.75;16.83;;;;;;;7.69;68.91;94749.94;5027321;28;20026;-82
2024/03/03 07:49:31;;;;;;;34.00;16.30;;;;;;;7.68;69.36;94753.88;5026908;28;20026;-83
2024/03/03 07:51:56;;;;;;;37.85;18.17;;;;;;;7.73;69.23;94747.88;5027849;28;20068;-83
2024/03/03 07:54:21;;;;;;;35.60;16.20;;;;;;;7.71;69.09;94750.28;5025128;28;20057;-82
2024/03/03 07:56:47;;;;;;;34.33;17.45;;;;;;;7.79;69.23;94747.38;5027716;28;20057;-83
2024/03/03 07:59:12;;;;;;;37.53;17.60;;;;;;;7.71;69.32;94741.28;5026421;28;20072;-82
2024/03/03 08:01:38;;;;;;;34.65;17.80;;;;;;;7.81;68.83;94750.47;5027492;28;20014;-83
2024/03/03 08:04:04;;;;;;;32.80;17.58;;;;;;;7.79;68.82;94750.88;5025153;28;20029;-83
2024/03/03 08:06:29;;;;;;;31.38;17.02;;;;;;;7.83;69.04;94748.84;5026696;28;20033;-82
2024/03/03 08:08:55;;;;;;;37.38;18.60;;;;;;;7.90;68.82;94743.22;5027202;28;20096;-81
2024/03/03 08:11:20;;;;;;;42.50;19.75;;;;;;;7.88;68.78;94731.94;5024863;28;20025;-81
2024/03/03 08:13:45;;;;;;;41.03;20.38;;;;;;;7.99;68.81;94739.91;5027369;28;20029;-83
2024/03/03 08:16:11;;;;;;;37.75;18.92;;;;;;;8.07;68.62;94741.28;5026095;28;20025;-82
2024/03/03 08:18:36;;;;;;;36.67;18.45;;;;;;;8.07;68.50;94746.00;5027308;28;20408;-82
2024/03/03 08:21:02;;;;;;;35.40;18.92;;;;;;;8.12;68.68;94748.22;5026168;28;20036;-82
2024/03/03 08:23:27;;;;;;;36.97;18.38;;;;;;;8.19;68.49;94748.06;5025194;28;20064;-83
2024/03/03 08:25:53;;;;;;;38.70;18.67;;;;;;;8.24;68.14;94742.84;5026645;28;20021;-83
2024/03/03 08:28:18;;;;;;;42.35;21.23;;;;;;;8.30;67.83;94739.63;5025938;28;20116;-82
2024/03/03 08:30:43;;;;;;;36.35;19.42;;;;;;;8.37;67.60;94743.00;5026848;28;20021;-83
2024/03/03 08:33:10;;;;;;;42.40;21.67;;;;;;;8.40;67.44;94744.13;5024295;28;20025;-82
2024/03/03 08:35:35;;;;;;;41.45;21.00;;;;;;;8.41;67.56;94745.66;5028458;28;20087;-81
2024/03/03 08:38:00;;;;;;;40.35;22.02;;;;;;;8.44;67.42;94744.81;5029502;28;20084;-82
2024/03/03 08:40:26;;;;;;;37.92;20.52;;;;;;;8.43;67.48;94746.78;5030120;28;20022;-81
2024/03/03 08:42:51;;;;;;;49.42;23.30;;;;;;;8.46;67.48;94748.66;5044850;28;20123;-82
2024/03/03 08:45:17;;;;;;;43.28;22.05;;;;;;;8.51;67.21;94752.84;5029891;28;20029;-81
2024/03/03 08:47:43;;;;;;;50.30;23.50;;;;;;;8.51;67.01;94736.41;5030275;28;20066;-82
2024/03/03 08:50:09;;;;;;;46.67;23.85;;;;;;;8.60;66.84;94752.22;5029645;28;20025;-82
2024/03/03 08:52:39;;;;;;;45.28;22.73;;;;;;;8.63;66.67;94749.41;5031653;28;20403;-81
2024/03/03 08:55:05;;;;;;;46.70;22.60;;;;;;;8.66;66.45;94748.56;5029576;28;20112;-82
2024/03/03 08:57:30;;;;;;;45.63;22.75;;;;;;;8.75;66.33;94754.22;5030175;28;20117;-81
2024/03/03 08:59:56;;;;;;;51.90;24.73;;;;;;;8.74;66.02;94744.44;5029874;28;20041;-81
2024/03/03 09:02:21;;;;;;;49.13;25.50;;;;;;;8.80;66.02;94746.69;5030401;28;20033;-80
2024/03/03 09:04:47;;;;;;;45.65;23.50;;;;;;;8.90;65.87;94748.38;5031935;28;20112;-80
2024/03/03 09:07:13;;;;;;;50.58;24.45;;;;;;;8.92;65.26;94735.00;5030634;28;20033;-81
2024/03/03 09:09:38;;;;;;;47.67;24.00;;;;;;;8.96;65.02;94735.69;5030359;28;20500;-81
2024/03/03 09:12:04;;;;;;;46.72;23.40;;;;;;;9.02;65.15;94737.47;5029405;28;20037;-81
2024/03/03 09:14:29;;;;;;;43.25;22.63;;;;;;;9.05;64.86;94742.09;5028711;28;20462;-78
2024/03/03 09:16:55;;;;;;;46.33;24.15;;;;;;;9.15;64.55;94739.50;5029068;28;20017;-79
2024/03/03 09:19:20;;;;;;;49.30;25.30;;;;;;;9.17;64.39;94734.34;5029678;28;20029;-80
2024/03/03 09:21:46;;;;;;;45.42;23.85;;;;;;;9.22;64.53;94740.06;5029532;28;20017;-80
2024/03/03 09:24:12;;;;;;;44.08;22.23;;;;;;;9.31;64.33;94736.72;5027728;28;20488;-82
2024/03/03 09:26:39;;;;;;;48.55;23.50;;;;;;;9.33;64.22;94731.56;5029618;28;20026;-80
2024/03/03 09:29:05;;;;;;;49.90;23.20;;;;;;;9.39;64.24;94734.53;5028709;28;20576;-80
2024/03/03 09:31:30;;;;;;;47.45;22.85;;;;;;;9.39;64.37;94731.81;5028051;28;20112;-79
2024/03/03 09:33:55;;;;;;;45.67;22.85;;;;;;;9.41;64.29;94727.44;5028347;28;20033;-79
2024/03/03 09:36:21;;;;;;;48.45;25.88;;;;;;;9.55;64.11;94729.00;5029298;28;20101;-80
2024/03/03 09:38:46;;;;;;;49.88;24.70;;;;;;;9.60;63.52;94739.44;5028545;28;20026;-80
2024/03/03 09:41:12;;;;;;;46.53;23.80;;;;;;;9.69;63.26;94728.63;5029102;28;20059;-80
2024/03/03 09:43:38;;;;;;;44.65;23.83;;;;;;;9.76;62.77;94731.16;5027502;28;20045;-79
2024/03/03 09:46:04;;;;;;;43.92;22.55;;;;;;;9.79;62.56;94730.25;5028800;28;20030;-80
2024/03/03 09:48:29;;;;;;;48.30;23.23;;;;;;;9.92;62.23;94721.28;5029225;28;20403;-79
2024/03/03 09:50:57;;;;;;;48.53;23.15;;;;;;;9.88;62.26;94720.63;5028344;28;20021;-79
2024/03/03 09:53:22;;;;;;;48.85;23.42;;;;;;;10.05;61.99;94727.56;5029016;28;20021;-81
2024/03/03 09:55:47;;;;;;;45.75;22.42;;;;;;;10.13;61.84;94726.13;5028133;28;20032;-79
2024/03/03 09:58:13;;;;;;;44.10;23.15;;;;;;;10.22;61.83;94728.25;5044283;28;20450;-79
2024/03/03 10:00:39;;;;;;;40.97;21.92;;;;;;;10.29;61.37;94726.06;5028385;28;20440;-79
2024/03/03 10:03:07;;;;;;;43.92;22.00;;;;;;;10.49;60.52;94725.06;5028565;28;20033;-80
2024/03/03 10:05:34;;;;;;;41.05;22.25;;;;;;;10.77;59.97;94710.38;5028305;28;20478;-80
2024/03/03 10:08:00;;;;;;;43.58;22.85;;;;;;;11.23;59.26;94718.28;5026779;28;20091;-80
2024/03/03 10:10:26;;;;;;;40.65;22.23;;;;;;;11.68;58.25;94715.09;5029045;28;20116;-81
2024/03/03 10:12:53;;;;;;;39.85;21.50;;;;;;;12.23;56.95;94715.44;5027928;28;20028;-81
2024/03/03 10:15:20;;;;;;;44.72;23.45;;;;;;;13.43;54.03;94710.97;5029127;28;20419;-81
2024/03/03 10:17:45;;;;;;;40.35;21.10;;;;;;;14.61;51.15;94700.84;5028276;28;20049;-81
2024/03/03 10:20:12;;;;;;;40.28;22.05;;;;;;;15.44;48.14;94700.31;5027182;28;20466;-79
2024/03/03 10:22:38;;;;;;;35.95;21.38;;;;;;;15.86;46.59;94702.88;5028024;28;20705;-81
2024/03/03 10:25:09;;;;;;;43.30;23.23;;;;;;;17.37;43.60;94701.59;5027913;28;20065;-81
2024/03/03 10:27:35;;;;;;;33.28;21.50;;;;;;;18.78;40.91;94701.72;5028855;28;20053;-80
2024/03/03 10:30:07;;;;;;;32.92;20.80;;;;;;;20.13;38.45;94698.22;5027603;28;20056;-80
2024/03/03 10:32:32;;;;;;;37.88;21.40;;;;;;;21.26;36.48;94698.13;5028717;28;20033;-81
2024/03/03 10:34:58;;;;;;;34.10;21.48;;;;;;;22.45;34.41;94691.47;5026381;28;20558;-81
2024/03/03 10:37:24;;;;;;;33.22;21.08;;;;;;;23.37;32.26;94688.06;5026598;28;20052;-80
2024/03/03 10:39:50;;;;;;;33.08;21.67;;;;;;;24.30;31.16;94687.34;5027913;28;20412;-79
2024/03/03 10:42:16;;;;;;;31.52;20.98;;;;;;;25.27;29.33;94678.88;5027221;28;20025;-80
2024/03/03 10:44:42;;;;;;;34.30;22.70;;;;;;;26.12;27.93;94673.81;5028379;28;20110;-80
2024/03/03 10:47:08;;;;;;;34.03;21.48;;;;;;;26.97;26.64;94681.03;5027520;28;20108;-80
2024/03/03 10:49:34;;;;;;;38.67;25.23;;;;;;;27.82;25.62;94662.59;5026920;28;20025;-80
2024/03/03 10:51:59;;;;;;;33.70;23.20;;;;;;;28.64;24.60;94665.50;5027318;28;20037;-80
2024/03/03 10:54:25;;;;;;;35.70;23.63;;;;;;;29.16;23.38;94655.53;5027975;28;20040;-80
2024/03/03 10:56:50;;;;;;;35.92;22.73;;;;;;;29.78;22.88;94645.59;5026121;28;20040;-81
2024/03/03 10:59:16;;;;;;;32.88;22.52;;;;;;;30.06;22.15;94638.88;5025706;28;20397;-80
2024/03/03 11:01:43;;;;;;;30.10;20.70;;;;;;;30.42;21.37;94638.50;5027816;28;20029;-81
2024/03/03 11:04:09;;;;;;;31.73;21.50;;;;;;;30.96;21.39;94635.28;5042107;28;20036;-81
2024/03/03 11:06:37;;;;;;;30.80;21.98;;;;;;;31.39;20.14;94631.16;5027667;28;20022;-80
2024/03/03 11:09:04;;;;;;;28.92;20.52;;;;;;;31.51;20.28;94625.72;5026590;28;20407;-80
2024/03/03 11:11:32;;;;;;;30.10;20.60;;;;;;;31.92;19.86;94634.75;5042801;28;20017;-80
2024/03/03 11:14:10;;;;;;;30.73;20.63;;;;;;;32.34;19.38;94620.38;5027037;28;20022;-81
2024/03/03 11:16:37;;;;;;;27.25;19.90;;;;;;;32.62;18.93;94606.88;5027006;28;20491;-80
2024/03/03 11:19:03;;;;;;;31.48;19.75;;;;;;;33.05;18.81;94610.22;5027665;28;20105;-81
2024/03/03 11:21:34;;;;;;;26.55;19.20;;;;;;;33.38;17.92;94599.16;5026461;28;20396;-80